sensor_id;sensor_type;location;lat;lon;timestamp;P1;durP1;ratioP1;P2;durP2;ratioP2
8100;SDS011;4093;53.470;9.832;2022-07-26T00:01:40;8.10;;;3.83;;
8100;SDS011;4093;53.470;9.832;2022-07-26T00:04:06;10.38;;;4.35;;
8100;SDS011;4093;53.470;9.832;2022-07-26T00:06:33;10.30;;;4.32;;
8100;SDS011;4093;53.470;9.832;2022-07-26T00:09:00;7.78;;;3.70;;
8100;SDS011;4093;53.470;9.832;2022-07-26T00:11:26;9.23;;;3.70;;
8100;SDS011;4093;53.470;9.832;2022-07-26T00:13:57;10.20;;;4.60;;
8100;SDS011;4093;53.470;9.832;2022-07-26T00:16:25;9.07;;;4.28;;
8100;SDS011;4093;53.470;9.832;2022-07-26T00:18:52;10.88;;;4.43;;
8100;SDS011;4093;53.470;9.832;2022-07-26T00:21:19;10.45;;;3.88;;
8100;SDS011;4093;53.470;9.832;2022-07-26T00:23:45;12.32;;;4.60;;
8100;SDS011;4093;53.470;9.832;2022-07-26T00:26:12;8.50;;;3.88;;
8100;SDS011;4093;53.470;9.832;2022-07-26T00:28:38;10.80;;;4.65;;
8100;SDS011;4093;53.470;9.832;2022-07-26T00:31:06;17.38;;;5.30;;
8100;SDS011;4093;53.470;9.832;2022-07-26T00:33:37;10.32;;;4.47;;
8100;SDS011;4093;53.470;9.832;2022-07-26T00:36:04;7.78;;;4.55;;
8100;SDS011;4093;53.470;9.832;2022-07-26T00:38:31;11.38;;;4.35;;
8100;SDS011;4093;53.470;9.832;2022-07-26T00:40:58;11.95;;;4.95;;
8100;SDS011;4093;53.470;9.832;2022-07-26T00:43:25;8.05;;;4.00;;
8100;SDS011;4093;53.470;9.832;2022-07-26T00:45:51;11.52;;;4.95;;
8100;SDS011;4093;53.470;9.832;2022-07-26T00:48:18;8.23;;;4.25;;
8100;SDS011;4093;53.470;9.832;2022-07-26T00:50:46;7.00;;;4.38;;
8100;SDS011;4093;53.470;9.832;2022-07-26T00:53:12;12.10;;;4.97;;
8100;SDS011;4093;53.470;9.832;2022-07-26T00:55:39;11.43;;;4.70;;
8100;SDS011;4093;53.470;9.832;2022-07-26T00:58:06;11.30;;;4.63;;
8100;SDS011;4093;53.470;9.832;2022-07-26T01:00:32;8.20;;;4.00;;
8100;SDS011;4093;53.470;9.832;2022-07-26T01:02:59;7.30;;;4.63;;
8100;SDS011;4093;53.470;9.832;2022-07-26T01:05:26;8.40;;;4.40;;
8100;SDS011;4093;53.470;9.832;2022-07-26T01:07:55;9.80;;;4.88;;
8100;SDS011;4093;53.470;9.832;2022-07-26T01:10:22;8.63;;;4.68;;
8100;SDS011;4093;53.470;9.832;2022-07-26T01:12:49;14.68;;;5.35;;
8100;SDS011;4093;53.470;9.832;2022-07-26T01:15:16;9.02;;;4.85;;
8100;SDS011;4093;53.470;9.832;2022-07-26T01:17:43;11.27;;;4.72;;
8100;SDS011;4093;53.470;9.832;2022-07-26T01:20:11;8.30;;;4.43;;
8100;SDS011;4093;53.470;9.832;2022-07-26T01:22:40;10.80;;;4.15;;
8100;SDS011;4093;53.470;9.832;2022-07-26T01:25:07;13.07;;;4.65;;
8100;SDS011;4093;53.470;9.832;2022-07-26T01:27:34;9.13;;;4.40;;
8100;SDS011;4093;53.470;9.832;2022-07-26T01:30:04;10.85;;;4.72;;
8100;SDS011;4093;53.470;9.832;2022-07-26T01:32:33;10.18;;;4.22;;
8100;SDS011;4093;53.470;9.832;2022-07-26T01:34:59;11.93;;;4.45;;
8100;SDS011;4093;53.470;9.832;2022-07-26T01:37:26;13.65;;;4.25;;
8100;SDS011;4093;53.470;9.832;2022-07-26T01:39:54;12.65;;;4.45;;
8100;SDS011;4093;53.470;9.832;2022-07-26T01:42:21;7.18;;;3.88;;
8100;SDS011;4093;53.470;9.832;2022-07-26T01:44:47;11.57;;;3.92;;
8100;SDS011;4093;53.470;9.832;2022-07-26T01:47:14;11.32;;;4.22;;
8100;SDS011;4093;53.470;9.832;2022-07-26T01:49:40;10.45;;;4.18;;
8100;SDS011;4093;53.470;9.832;2022-07-26T01:52:07;10.10;;;4.15;;
8100;SDS011;4093;53.470;9.832;2022-07-26T01:54:33;9.52;;;4.53;;
8100;SDS011;4093;53.470;9.832;2022-07-26T01:57:01;7.15;;;4.10;;
8100;SDS011;4093;53.470;9.832;2022-07-26T01:59:28;10.15;;;3.90;;
8100;SDS011;4093;53.470;9.832;2022-07-26T02:01:55;13.02;;;5.03;;
8100;SDS011;4093;53.470;9.832;2022-07-26T02:04:21;9.70;;;3.58;;
8100;SDS011;4093;53.470;9.832;2022-07-26T02:07:06;11.30;;;4.38;;
8100;SDS011;4093;53.470;9.832;2022-07-26T02:09:32;10.27;;;3.78;;
8100;SDS011;4093;53.470;9.832;2022-07-26T02:12:01;9.75;;;4.07;;
8100;SDS011;4093;53.470;9.832;2022-07-26T02:14:28;7.88;;;3.35;;
8100;SDS011;4093;53.470;9.832;2022-07-26T02:16:55;10.25;;;4.63;;
8100;SDS011;4093;53.470;9.832;2022-07-26T02:19:24;10.50;;;4.18;;
8100;SDS011;4093;53.470;9.832;2022-07-26T02:21:50;12.07;;;3.58;;
8100;SDS011;4093;53.470;9.832;2022-07-26T02:24:17;7.97;;;3.63;;
8100;SDS011;4093;53.470;9.832;2022-07-26T02:26:43;16.08;;;4.20;;
8100;SDS011;4093;53.470;9.832;2022-07-26T02:29:11;9.75;;;4.05;;
8100;SDS011;4093;53.470;9.832;2022-07-26T02:31:39;10.23;;;3.85;;
8100;SDS011;4093;53.470;9.832;2022-07-26T02:34:05;11.18;;;4.60;;
8100;SDS011;4093;53.470;9.832;2022-07-26T02:36:32;9.57;;;3.85;;
8100;SDS011;4093;53.470;9.832;2022-07-26T02:38:59;10.27;;;4.15;;
8100;SDS011;4093;53.470;9.832;2022-07-26T02:41:25;9.73;;;3.58;;
8100;SDS011;4093;53.470;9.832;2022-07-26T02:43:52;11.60;;;4.30;;
8100;SDS011;4093;53.470;9.832;2022-07-26T02:46:20;8.75;;;3.95;;
8100;SDS011;4093;53.470;9.832;2022-07-26T02:48:46;10.85;;;4.03;;
8100;SDS011;4093;53.470;9.832;2022-07-26T02:51:13;10.05;;;4.47;;
8100;SDS011;4093;53.470;9.832;2022-07-26T02:53:40;12.65;;;4.13;;
8100;SDS011;4093;53.470;9.832;2022-07-26T02:56:06;12.77;;;4.07;;
8100;SDS011;4093;53.470;9.832;2022-07-26T02:58:33;11.48;;;4.30;;
8100;SDS011;4093;53.470;9.832;2022-07-26T03:01:00;10.63;;;4.63;;
8100;SDS011;4093;53.470;9.832;2022-07-26T03:03:28;8.93;;;3.70;;
8100;SDS011;4093;53.470;9.832;2022-07-26T03:05:54;17.85;;;5.85;;
8100;SDS011;4093;53.470;9.832;2022-07-26T03:08:21;8.82;;;4.20;;
8100;SDS011;4093;53.470;9.832;2022-07-26T03:10:48;11.60;;;4.75;;
8100;SDS011;4093;53.470;9.832;2022-07-26T03:13:14;10.77;;;4.50;;
8100;SDS011;4093;53.470;9.832;2022-07-26T03:15:41;12.20;;;4.22;;
8100;SDS011;4093;53.470;9.832;2022-07-26T03:18:07;10.55;;;3.92;;
8100;SDS011;4093;53.470;9.832;2022-07-26T03:20:35;12.52;;;4.47;;
8100;SDS011;4093;53.470;9.832;2022-07-26T03:23:02;13.73;;;4.57;;
8100;SDS011;4093;53.470;9.832;2022-07-26T03:25:29;11.93;;;4.72;;
8100;SDS011;4093;53.470;9.832;2022-07-26T03:27:55;12.85;;;4.85;;
8100;SDS011;4093;53.470;9.832;2022-07-26T03:30:22;14.68;;;5.43;;
8100;SDS011;4093;53.470;9.832;2022-07-26T03:32:49;12.63;;;4.25;;
8100;SDS011;4093;53.470;9.832;2022-07-26T03:35:16;14.00;;;4.72;;
8100;SDS011;4093;53.470;9.832;2022-07-26T03:37:44;11.85;;;4.90;;
8100;SDS011;4093;53.470;9.832;2022-07-26T03:40:11;13.23;;;4.80;;
8100;SDS011;4093;53.470;9.832;2022-07-26T03:42:38;13.73;;;4.40;;
8100;SDS011;4093;53.470;9.832;2022-07-26T03:45:05;13.55;;;4.93;;
8100;SDS011;4093;53.470;9.832;2022-07-26T03:47:32;12.25;;;4.65;;
8100;SDS011;4093;53.470;9.832;2022-07-26T03:49:59;15.88;;;5.07;;
8100;SDS011;4093;53.470;9.832;2022-07-26T03:52:26;14.20;;;5.22;;
8100;SDS011;4093;53.470;9.832;2022-07-26T03:54:54;12.98;;;4.53;;
8100;SDS011;4093;53.470;9.832;2022-07-26T03:57:20;11.23;;;4.45;;
8100;SDS011;4093;53.470;9.832;2022-07-26T03:59:46;19.05;;;5.30;;
8100;SDS011;4093;53.470;9.832;2022-07-26T04:02:12;7.85;;;3.67;;
8100;SDS011;4093;53.470;9.832;2022-07-26T04:04:39;8.30;;;3.90;;
8100;SDS011;4093;53.470;9.832;2022-07-26T04:07:05;15.40;;;4.93;;
8100;SDS011;4093;53.470;9.832;2022-07-26T04:09:32;12.32;;;5.07;;
8100;SDS011;4093;53.470;9.832;2022-07-26T04:12:00;11.65;;;4.47;;
8100;SDS011;4093;53.470;9.832;2022-07-26T04:14:27;13.27;;;4.40;;
8100;SDS011;4093;53.470;9.832;2022-07-26T04:16:53;14.95;;;4.60;;
8100;SDS011;4093;53.470;9.832;2022-07-26T04:19:20;16.85;;;5.15;;
8100;SDS011;4093;53.470;9.832;2022-07-26T04:21:46;13.18;;;3.97;;
8100;SDS011;4093;53.470;9.832;2022-07-26T04:24:13;13.30;;;4.35;;
8100;SDS011;4093;53.470;9.832;2022-07-26T04:26:39;11.70;;;5.10;;
8100;SDS011;4093;53.470;9.832;2022-07-26T04:29:07;16.08;;;4.78;;
8100;SDS011;4093;53.470;9.832;2022-07-26T04:31:34;12.98;;;4.50;;
8100;SDS011;4093;53.470;9.832;2022-07-26T04:34:00;16.38;;;4.32;;
8100;SDS011;4093;53.470;9.832;2022-07-26T04:36:27;16.08;;;4.65;;
8100;SDS011;4093;53.470;9.832;2022-07-26T04:38:53;15.38;;;4.90;;
8100;SDS011;4093;53.470;9.832;2022-07-26T04:41:20;13.57;;;5.10;;
8100;SDS011;4093;53.470;9.832;2022-07-26T04:43:46;17.75;;;4.85;;
8100;SDS011;4093;53.470;9.832;2022-07-26T04:46:14;12.82;;;4.63;;
8100;SDS011;4093;53.470;9.832;2022-07-26T04:48:42;21.85;;;5.38;;
8100;SDS011;4093;53.470;9.832;2022-07-26T04:51:08;14.05;;;4.85;;
8100;SDS011;4093;53.470;9.832;2022-07-26T04:53:35;17.00;;;5.13;;
8100;SDS011;4093;53.470;9.832;2022-07-26T04:56:01;22.83;;;5.28;;
8100;SDS011;4093;53.470;9.832;2022-07-26T04:58:29;12.13;;;4.53;;
8100;SDS011;4093;53.470;9.832;2022-07-26T05:00:56;12.27;;;5.47;;
8100;SDS011;4093;53.470;9.832;2022-07-26T05:03:25;9.70;;;4.43;;
8100;SDS011;4093;53.470;9.832;2022-07-26T05:05:51;13.52;;;4.50;;
8100;SDS011;4093;53.470;9.832;2022-07-26T05:08:18;20.33;;;5.13;;
8100;SDS011;4093;53.470;9.832;2022-07-26T05:10:45;11.32;;;4.80;;
8100;SDS011;4093;53.470;9.832;2022-07-26T05:13:11;13.73;;;4.78;;
8100;SDS011;4093;53.470;9.832;2022-07-26T05:15:38;9.98;;;4.70;;
8100;SDS011;4093;53.470;9.832;2022-07-26T05:18:05;10.55;;;4.35;;
8100;SDS011;4093;53.470;9.832;2022-07-26T05:20:34;19.75;;;5.40;;
8100;SDS011;4093;53.470;9.832;2022-07-26T05:23:01;11.15;;;4.80;;
8100;SDS011;4093;53.470;9.832;2022-07-26T05:25:29;17.65;;;5.60;;
8100;SDS011;4093;53.470;9.832;2022-07-26T05:27:55;12.60;;;4.80;;
8100;SDS011;4093;53.470;9.832;2022-07-26T05:30:22;11.80;;;5.65;;
8100;SDS011;4093;53.470;9.832;2022-07-26T05:32:49;13.30;;;5.32;;
8100;SDS011;4093;53.470;9.832;2022-07-26T05:35:15;13.27;;;4.82;;
8100;SDS011;4093;53.470;9.832;2022-07-26T05:37:43;8.30;;;4.97;;
8100;SDS011;4093;53.470;9.832;2022-07-26T05:40:10;11.13;;;4.55;;
8100;SDS011;4093;53.470;9.832;2022-07-26T05:42:37;9.05;;;4.60;;
8100;SDS011;4093;53.470;9.832;2022-07-26T05:45:04;10.27;;;4.15;;
8100;SDS011;4093;53.470;9.832;2022-07-26T05:47:31;5.57;;;2.80;;
8100;SDS011;4093;53.470;9.832;2022-07-26T05:49:58;8.35;;;3.53;;
8100;SDS011;4093;53.470;9.832;2022-07-26T05:52:25;4.28;;;3.10;;
8100;SDS011;4093;53.470;9.832;2022-07-26T05:54:53;6.35;;;2.65;;
8100;SDS011;4093;53.470;9.832;2022-07-26T05:57:19;7.03;;;2.70;;
8100;SDS011;4093;53.470;9.832;2022-07-26T05:59:46;5.55;;;3.22;;
8100;SDS011;4093;53.470;9.832;2022-07-26T06:02:12;5.20;;;3.10;;
8100;SDS011;4093;53.470;9.832;2022-07-26T06:04:39;4.95;;;3.22;;
8100;SDS011;4093;53.470;9.832;2022-07-26T06:07:06;4.32;;;2.70;;
8100;SDS011;4093;53.470;9.832;2022-07-26T06:09:32;4.15;;;2.90;;
8100;SDS011;4093;53.470;9.832;2022-07-26T06:12:00;4.25;;;2.83;;
8100;SDS011;4093;53.470;9.832;2022-07-26T06:14:27;7.32;;;3.20;;
8100;SDS011;4093;53.470;9.832;2022-07-26T06:16:53;3.03;;;2.72;;
8100;SDS011;4093;53.470;9.832;2022-07-26T06:19:20;6.50;;;2.65;;
8100;SDS011;4093;53.470;9.832;2022-07-26T06:21:47;6.28;;;2.80;;
8100;SDS011;4093;53.470;9.832;2022-07-26T06:24:13;4.07;;;2.85;;
8100;SDS011;4093;53.470;9.832;2022-07-26T06:26:40;7.85;;;3.00;;
8100;SDS011;4093;53.470;9.832;2022-07-26T06:29:08;5.75;;;2.88;;
8100;SDS011;4093;53.470;9.832;2022-07-26T06:31:35;5.22;;;2.90;;
8100;SDS011;4093;53.470;9.832;2022-07-26T06:34:01;8.43;;;2.83;;
8100;SDS011;4093;53.470;9.832;2022-07-26T06:36:28;5.35;;;2.70;;
8100;SDS011;4093;53.470;9.832;2022-07-26T06:38:54;4.22;;;2.15;;
8100;SDS011;4093;53.470;9.832;2022-07-26T06:41:21;8.18;;;2.65;;
8100;SDS011;4093;53.470;9.832;2022-07-26T06:43:48;5.47;;;2.50;;
8100;SDS011;4093;53.470;9.832;2022-07-26T06:46:16;5.88;;;2.28;;
8100;SDS011;4093;53.470;9.832;2022-07-26T06:48:44;4.72;;;2.63;;
8100;SDS011;4093;53.470;9.832;2022-07-26T06:51:11;5.78;;;2.30;;
8100;SDS011;4093;53.470;9.832;2022-07-26T06:53:38;5.30;;;2.10;;
8100;SDS011;4093;53.470;9.832;2022-07-26T06:56:04;7.28;;;2.30;;
8100;SDS011;4093;53.470;9.832;2022-07-26T06:58:31;3.95;;;2.05;;
8100;SDS011;4093;53.470;9.832;2022-07-26T07:00:58;3.97;;;2.25;;
8100;SDS011;4093;53.470;9.832;2022-07-26T07:03:26;5.88;;;2.28;;
8100;SDS011;4093;53.470;9.832;2022-07-26T07:05:53;4.28;;;2.38;;
8100;SDS011;4093;53.470;9.832;2022-07-26T07:08:19;4.32;;;1.85;;
8100;SDS011;4093;53.470;9.832;2022-07-26T07:10:48;4.70;;;2.00;;
8100;SDS011;4093;53.470;9.832;2022-07-26T07:13:15;9.52;;;2.10;;
8100;SDS011;4093;53.470;9.832;2022-07-26T07:15:41;3.08;;;1.75;;
8100;SDS011;4093;53.470;9.832;2022-07-26T07:18:08;4.78;;;1.92;;
8100;SDS011;4093;53.470;9.832;2022-07-26T07:20:36;3.53;;;1.98;;
8100;SDS011;4093;53.470;9.832;2022-07-26T07:23:03;3.90;;;1.92;;
8100;SDS011;4093;53.470;9.832;2022-07-26T07:25:30;6.55;;;1.85;;
8100;SDS011;4093;53.470;9.832;2022-07-26T07:27:56;5.78;;;2.00;;
8100;SDS011;4093;53.470;9.832;2022-07-26T07:30:24;5.75;;;2.00;;
8100;SDS011;4093;53.470;9.832;2022-07-26T07:32:50;5.13;;;2.00;;
8100;SDS011;4093;53.470;9.832;2022-07-26T07:35:17;6.22;;;2.15;;
8100;SDS011;4093;53.470;9.832;2022-07-26T07:37:45;4.25;;;1.70;;
8100;SDS011;4093;53.470;9.832;2022-07-26T07:40:12;4.10;;;1.75;;
8100;SDS011;4093;53.470;9.832;2022-07-26T07:42:39;1.90;;;1.30;;
8100;SDS011;4093;53.470;9.832;2022-07-26T07:45:06;3.40;;;1.45;;
8100;SDS011;4093;53.470;9.832;2022-07-26T07:47:35;1.92;;;1.60;;
8100;SDS011;4093;53.470;9.832;2022-07-26T07:50:01;4.68;;;1.50;;
8100;SDS011;4093;53.470;9.832;2022-07-26T07:52:29;2.97;;;1.83;;
8100;SDS011;4093;53.470;9.832;2022-07-26T07:54:56;7.47;;;2.08;;
8100;SDS011;4093;53.470;9.832;2022-07-26T07:57:23;3.25;;;1.38;;
8100;SDS011;4093;53.470;9.832;2022-07-26T07:59:50;4.15;;;1.50;;
8100;SDS011;4093;53.470;9.832;2022-07-26T08:02:16;5.30;;;1.80;;
8100;SDS011;4093;53.470;9.832;2022-07-26T08:04:43;6.25;;;1.75;;
8100;SDS011;4093;53.470;9.832;2022-07-26T08:07:09;3.47;;;1.73;;
8100;SDS011;4093;53.470;9.832;2022-07-26T08:09:36;4.30;;;1.77;;
8100;SDS011;4093;53.470;9.832;2022-07-26T08:12:04;5.35;;;1.85;;
8100;SDS011;4093;53.470;9.832;2022-07-26T08:14:31;4.10;;;1.52;;
8100;SDS011;4093;53.470;9.832;2022-07-26T08:16:57;3.78;;;1.63;;
8100;SDS011;4093;53.470;9.832;2022-07-26T08:19:24;6.25;;;1.50;;
8100;SDS011;4093;53.470;9.832;2022-07-26T08:21:51;2.80;;;1.35;;
8100;SDS011;4093;53.470;9.832;2022-07-26T08:24:17;4.03;;;1.50;;
8100;SDS011;4093;53.470;9.832;2022-07-26T08:26:44;2.90;;;1.60;;
8100;SDS011;4093;53.470;9.832;2022-07-26T08:29:12;8.07;;;1.77;;
8100;SDS011;4093;53.470;9.832;2022-07-26T08:31:38;2.63;;;1.10;;
8100;SDS011;4093;53.470;9.832;2022-07-26T08:34:05;2.67;;;1.48;;
8100;SDS011;4093;53.470;9.832;2022-07-26T08:36:31;1.20;;;1.10;;
8100;SDS011;4093;53.470;9.832;2022-07-26T08:38:58;3.08;;;1.48;;
8100;SDS011;4093;53.470;9.832;2022-07-26T08:41:25;3.70;;;1.60;;
8100;SDS011;4093;53.470;9.832;2022-07-26T08:43:51;3.03;;;1.73;;
8100;SDS011;4093;53.470;9.832;2022-07-26T08:46:19;6.30;;;1.60;;
8100;SDS011;4093;53.470;9.832;2022-07-26T08:48:47;2.97;;;1.55;;
8100;SDS011;4093;53.470;9.832;2022-07-26T08:51:14;5.00;;;2.03;;
8100;SDS011;4093;53.470;9.832;2022-07-26T08:53:45;1.90;;;1.35;;
8100;SDS011;4093;53.470;9.832;2022-07-26T08:56:12;3.30;;;1.52;;
8100;SDS011;4093;53.470;9.832;2022-07-26T08:58:39;2.53;;;1.70;;
8100;SDS011;4093;53.470;9.832;2022-07-26T09:01:07;2.88;;;1.30;;
8100;SDS011;4093;53.470;9.832;2022-07-26T09:03:38;4.18;;;1.77;;
8100;SDS011;4093;53.470;9.832;2022-07-26T09:06:15;1.70;;;1.13;;
8100;SDS011;4093;53.470;9.832;2022-07-26T09:08:43;4.82;;;1.80;;
8100;SDS011;4093;53.470;9.832;2022-07-26T09:11:30;2.95;;;1.42;;
8100;SDS011;4093;53.470;9.832;2022-07-26T09:13:58;3.90;;;1.55;;
8100;SDS011;4093;53.470;9.832;2022-07-26T09:16:26;2.25;;;1.30;;
8100;SDS011;4093;53.470;9.832;2022-07-26T09:18:55;5.40;;;1.45;;
8100;SDS011;4093;53.470;9.832;2022-07-26T09:21:40;4.00;;;1.73;;
8100;SDS011;4093;53.470;9.832;2022-07-26T09:24:07;2.53;;;1.50;;
8100;SDS011;4093;53.470;9.832;2022-07-26T09:26:35;3.35;;;1.42;;
8100;SDS011;4093;53.470;9.832;2022-07-26T09:29:05;4.25;;;1.83;;
8100;SDS011;4093;53.470;9.832;2022-07-26T09:31:34;2.58;;;1.45;;
8100;SDS011;4093;53.470;9.832;2022-07-26T09:34:02;4.68;;;1.67;;
8100;SDS011;4093;53.470;9.832;2022-07-26T09:36:29;4.20;;;1.75;;
8100;SDS011;4093;53.470;9.832;2022-07-26T09:38:58;4.55;;;1.55;;
8100;SDS011;4093;53.470;9.832;2022-07-26T09:41:27;8.40;;;1.92;;
8100;SDS011;4093;53.470;9.832;2022-07-26T09:43:54;5.20;;;1.83;;
8100;SDS011;4093;53.470;9.832;2022-07-26T09:46:24;3.70;;;1.70;;
8100;SDS011;4093;53.470;9.832;2022-07-26T09:48:51;3.95;;;1.60;;
8100;SDS011;4093;53.470;9.832;2022-07-26T09:51:37;6.82;;;1.67;;
8100;SDS011;4093;53.470;9.832;2022-07-26T09:54:05;5.70;;;1.45;;
8100;SDS011;4093;53.470;9.832;2022-07-26T09:56:41;2.53;;;1.30;;
8100;SDS011;4093;53.470;9.832;2022-07-26T09:59:09;5.38;;;2.03;;
8100;SDS011;4093;53.470;9.832;2022-07-26T10:01:38;5.80;;;1.90;;
8100;SDS011;4093;53.470;9.832;2022-07-26T10:04:04;3.05;;;1.67;;
8100;SDS011;4093;53.470;9.832;2022-07-26T10:06:31;3.72;;;1.45;;
8100;SDS011;4093;53.470;9.832;2022-07-26T10:08:59;4.72;;;1.60;;
8100;SDS011;4093;53.470;9.832;2022-07-26T10:11:28;5.50;;;2.10;;
8100;SDS011;4093;53.470;9.832;2022-07-26T10:14:13;4.80;;;2.15;;
8100;SDS011;4093;53.470;9.832;2022-07-26T10:17:00;3.65;;;1.45;;
8100;SDS011;4093;53.470;9.832;2022-07-26T10:19:36;3.85;;;1.63;;
8100;SDS011;4093;53.470;9.832;2022-07-26T10:22:22;3.55;;;1.70;;
8100;SDS011;4093;53.470;9.832;2022-07-26T10:24:51;3.97;;;1.42;;
8100;SDS011;4093;53.470;9.832;2022-07-26T10:27:36;4.82;;;1.60;;
8100;SDS011;4093;53.470;9.832;2022-07-26T10:30:19;5.03;;;1.45;;
8100;SDS011;4093;53.470;9.832;2022-07-26T10:32:55;5.00;;;1.98;;
8100;SDS011;4093;53.470;9.832;2022-07-26T10:35:30;4.80;;;1.48;;
8100;SDS011;4093;53.470;9.832;2022-07-26T10:38:03;5.20;;;1.60;;
8100;SDS011;4093;53.470;9.832;2022-07-26T10:40:32;3.80;;;1.50;;
8100;SDS011;4093;53.470;9.832;2022-07-26T10:43:05;3.90;;;1.70;;
8100;SDS011;4093;53.470;9.832;2022-07-26T10:45:32;5.63;;;2.00;;
8100;SDS011;4093;53.470;9.832;2022-07-26T10:48:09;3.75;;;1.70;;
8100;SDS011;4093;53.470;9.832;2022-07-26T10:50:37;3.83;;;1.80;;
8100;SDS011;4093;53.470;9.832;2022-07-26T10:53:04;6.03;;;1.92;;
8100;SDS011;4093;53.470;9.832;2022-07-26T10:55:33;5.72;;;1.83;;
8100;SDS011;4093;53.470;9.832;2022-07-26T10:58:11;5.80;;;2.00;;
8100;SDS011;4093;53.470;9.832;2022-07-26T11:00:37;7.43;;;1.80;;
8100;SDS011;4093;53.470;9.832;2022-07-26T11:03:04;3.13;;;1.77;;
8100;SDS011;4093;53.470;9.832;2022-07-26T11:05:31;5.78;;;1.70;;
8100;SDS011;4093;53.470;9.832;2022-07-26T11:08:03;8.82;;;2.17;;
8100;SDS011;4093;53.470;9.832;2022-07-26T11:10:34;3.03;;;1.77;;
8100;SDS011;4093;53.470;9.832;2022-07-26T11:13:08;7.88;;;2.10;;
8100;SDS011;4093;53.470;9.832;2022-07-26T11:15:38;7.07;;;2.00;;
8100;SDS011;4093;53.470;9.832;2022-07-26T11:18:13;7.75;;;2.00;;
8100;SDS011;4093;53.470;9.832;2022-07-26T11:20:49;3.63;;;2.10;;
8100;SDS011;4093;53.470;9.832;2022-07-26T11:23:22;6.07;;;2.33;;
8100;SDS011;4093;53.470;9.832;2022-07-26T11:26:04;6.75;;;1.92;;
8100;SDS011;4093;53.470;9.832;2022-07-26T11:31:25;4.10;;;1.90;;
8100;SDS011;4093;53.470;9.832;2022-07-26T11:34:01;5.07;;;1.85;;
8100;SDS011;4093;53.470;9.832;2022-07-26T11:36:32;6.25;;;2.10;;
8100;SDS011;4093;53.470;9.832;2022-07-26T11:39:03;6.68;;;1.75;;
8100;SDS011;4093;53.470;9.832;2022-07-26T11:41:33;6.25;;;2.25;;
8100;SDS011;4093;53.470;9.832;2022-07-26T11:44:01;4.97;;;2.10;;
8100;SDS011;4093;53.470;9.832;2022-07-26T11:46:32;7.57;;;2.35;;
8100;SDS011;4093;53.470;9.832;2022-07-26T11:49:01;4.75;;;2.00;;
8100;SDS011;4093;53.470;9.832;2022-07-26T11:51:30;4.82;;;2.13;;
8100;SDS011;4093;53.470;9.832;2022-07-26T11:53:57;5.50;;;2.38;;
8100;SDS011;4093;53.470;9.832;2022-07-26T11:56:26;9.85;;;2.60;;
8100;SDS011;4093;53.470;9.832;2022-07-26T11:58:56;5.22;;;2.53;;
8100;SDS011;4093;53.470;9.832;2022-07-26T12:01:24;10.52;;;2.72;;
8100;SDS011;4093;53.470;9.832;2022-07-26T12:03:53;5.45;;;2.58;;
8100;SDS011;4093;53.470;9.832;2022-07-26T12:06:20;8.32;;;2.50;;
8100;SDS011;4093;53.470;9.832;2022-07-26T12:08:49;7.57;;;2.47;;
8100;SDS011;4093;53.470;9.832;2022-07-26T12:11:17;7.63;;;2.25;;
8100;SDS011;4093;53.470;9.832;2022-07-26T12:13:51;7.32;;;2.30;;
8100;SDS011;4093;53.470;9.832;2022-07-26T12:16:37;7.82;;;2.78;;
8100;SDS011;4093;53.470;9.832;2022-07-26T12:19:09;7.10;;;2.30;;
8100;SDS011;4093;53.470;9.832;2022-07-26T12:21:49;6.32;;;2.15;;
8100;SDS011;4093;53.470;9.832;2022-07-26T12:27:03;3.97;;;1.98;;
8100;SDS011;4093;53.470;9.832;2022-07-26T12:29:31;7.95;;;2.40;;
8100;SDS011;4093;53.470;9.832;2022-07-26T12:32:02;7.28;;;2.53;;
8100;SDS011;4093;53.470;9.832;2022-07-26T12:34:30;6.07;;;1.92;;
8100;SDS011;4093;53.470;9.832;2022-07-26T12:37:14;8.35;;;2.42;;
8100;SDS011;4093;53.470;9.832;2022-07-26T12:42:29;2.58;;;1.88;;
8100;SDS011;4093;53.470;9.832;2022-07-26T12:44:57;5.22;;;2.60;;
8100;SDS011;4093;53.470;9.832;2022-07-26T12:47:25;5.00;;;2.50;;
8100;SDS011;4093;53.470;9.832;2022-07-26T12:49:52;4.40;;;1.92;;
8100;SDS011;4093;53.470;9.832;2022-07-26T12:52:20;6.97;;;2.33;;
8100;SDS011;4093;53.470;9.832;2022-07-26T12:54:49;5.60;;;2.00;;
8100;SDS011;4093;53.470;9.832;2022-07-26T12:57:17;6.20;;;2.42;;
8100;SDS011;4093;53.470;9.832;2022-07-26T12:59:45;6.90;;;1.98;;
8100;SDS011;4093;53.470;9.832;2022-07-26T13:02:12;10.43;;;2.67;;
8100;SDS011;4093;53.470;9.832;2022-07-26T13:04:42;6.10;;;2.08;;
8100;SDS011;4093;53.470;9.832;2022-07-26T13:07:08;6.28;;;2.10;;
8100;SDS011;4093;53.470;9.832;2022-07-26T13:09:35;5.20;;;1.80;;
8100;SDS011;4093;53.470;9.832;2022-07-26T13:12:02;6.35;;;2.35;;
8100;SDS011;4093;53.470;9.832;2022-07-26T13:14:30;4.13;;;1.90;;
8100;SDS011;4093;53.470;9.832;2022-07-26T13:16:58;6.35;;;1.98;;
8100;SDS011;4093;53.470;9.832;2022-07-26T13:19:24;7.38;;;2.00;;
8100;SDS011;4093;53.470;9.832;2022-07-26T13:21:52;5.13;;;1.95;;
8100;SDS011;4093;53.470;9.832;2022-07-26T13:24:20;7.82;;;2.05;;
8100;SDS011;4093;53.470;9.832;2022-07-26T13:26:47;4.00;;;2.03;;
8100;SDS011;4093;53.470;9.832;2022-07-26T13:29:13;3.65;;;2.00;;
8100;SDS011;4093;53.470;9.832;2022-07-26T13:31:40;5.57;;;2.00;;
8100;SDS011;4093;53.470;9.832;2022-07-26T13:34:07;5.63;;;2.10;;
8100;SDS011;4093;53.470;9.832;2022-07-26T13:36:33;5.35;;;2.33;;
8100;SDS011;4093;53.470;9.832;2022-07-26T13:39:02;5.70;;;2.00;;
8100;SDS011;4093;53.470;9.832;2022-07-26T13:41:29;6.22;;;2.17;;
8100;SDS011;4093;53.470;9.832;2022-07-26T13:43:56;4.57;;;1.90;;
8100;SDS011;4093;53.470;9.832;2022-07-26T13:46:23;4.38;;;2.10;;
8100;SDS011;4093;53.470;9.832;2022-07-26T13:48:53;6.00;;;2.33;;
8100;SDS011;4093;53.470;9.832;2022-07-26T13:51:21;3.83;;;1.75;;
8100;SDS011;4093;53.470;9.832;2022-07-26T13:53:47;5.22;;;1.90;;
8100;SDS011;4093;53.470;9.832;2022-07-26T13:56:15;4.50;;;1.83;;
8100;SDS011;4093;53.470;9.832;2022-07-26T13:58:42;5.40;;;2.08;;
8100;SDS011;4093;53.470;9.832;2022-07-26T14:01:08;4.85;;;2.10;;
8100;SDS011;4093;53.470;9.832;2022-07-26T14:03:35;5.57;;;1.83;;
8100;SDS011;4093;53.470;9.832;2022-07-26T14:06:01;6.13;;;1.92;;
8100;SDS011;4093;53.470;9.832;2022-07-26T14:08:28;6.03;;;1.88;;
8100;SDS011;4093;53.470;9.832;2022-07-26T14:10:54;5.25;;;1.80;;
8100;SDS011;4093;53.470;9.832;2022-07-26T14:13:22;2.92;;;1.67;;
8100;SDS011;4093;53.470;9.832;2022-07-26T14:15:49;5.07;;;1.80;;
8100;SDS011;4093;53.470;9.832;2022-07-26T14:18:15;3.20;;;1.92;;
8100;SDS011;4093;53.470;9.832;2022-07-26T14:20:42;5.10;;;2.03;;
8100;SDS011;4093;53.470;9.832;2022-07-26T14:23:09;4.55;;;1.80;;
8100;SDS011;4093;53.470;9.832;2022-07-26T14:25:35;5.32;;;1.98;;
8100;SDS011;4093;53.470;9.832;2022-07-26T14:28:02;5.60;;;1.80;;
8100;SDS011;4093;53.470;9.832;2022-07-26T14:30:30;7.53;;;2.08;;
8100;SDS011;4093;53.470;9.832;2022-07-26T14:32:57;7.07;;;2.55;;
8100;SDS011;4093;53.470;9.832;2022-07-26T14:35:23;6.22;;;2.28;;
8100;SDS011;4093;53.470;9.832;2022-07-26T14:37:50;4.88;;;1.95;;
8100;SDS011;4093;53.470;9.832;2022-07-26T14:40:17;4.85;;;1.92;;
8100;SDS011;4093;53.470;9.832;2022-07-26T14:42:43;5.35;;;2.00;;
8100;SDS011;4093;53.470;9.832;2022-07-26T14:45:11;7.65;;;2.00;;
8100;SDS011;4093;53.470;9.832;2022-07-26T14:47:39;6.78;;;2.30;;
8100;SDS011;4093;53.470;9.832;2022-07-26T14:50:06;7.75;;;1.95;;
8100;SDS011;4093;53.470;9.832;2022-07-26T14:52:35;7.95;;;2.40;;
8100;SDS011;4093;53.470;9.832;2022-07-26T14:55:02;2.92;;;1.55;;
8100;SDS011;4093;53.470;9.832;2022-07-26T14:57:29;6.20;;;2.50;;
8100;SDS011;4093;53.470;9.832;2022-07-26T14:59:56;11.75;;;2.50;;
8100;SDS011;4093;53.470;9.832;2022-07-26T15:02:23;3.45;;;1.83;;
8100;SDS011;4093;53.470;9.832;2022-07-26T15:04:51;4.40;;;2.17;;
8100;SDS011;4093;53.470;9.832;2022-07-26T15:07:17;4.93;;;2.15;;
8100;SDS011;4093;53.470;9.832;2022-07-26T15:09:44;6.82;;;2.30;;
8100;SDS011;4093;53.470;9.832;2022-07-26T15:12:11;10.48;;;2.65;;
8100;SDS011;4093;53.470;9.832;2022-07-26T15:14:37;5.55;;;2.45;;
8100;SDS011;4093;53.470;9.832;2022-07-26T15:17:05;6.65;;;2.17;;
8100;SDS011;4093;53.470;9.832;2022-07-26T15:19:31;8.07;;;2.30;;
8100;SDS011;4093;53.470;9.832;2022-07-26T15:21:59;10.70;;;2.47;;
8100;SDS011;4093;53.470;9.832;2022-07-26T15:24:26;5.22;;;2.42;;